Time;durP1;ratioP1;P1;durP2;ratioP2;P2;SDS_P1;SDS_P2;PMS_P1;PMS_P2;Temp;Humidity;BMP_temperature;BMP_pressure;BME280_temperature;BME280_humidity;BME280_pressure;Samples;Min_cycle;Max_cycle;Signal;HPM_P1;HPM_P2
2022/04/11 10:25:59;;;;;;;;;;;;;;;9.73;59.18;99471.44;5011100;23;1553;-57
2022/04/11 10:28:30;;;;;;;;;;;;;;;9.36;60.30;99428.72;4994998;28;883;-56
2022/04/11 10:31:04;;;;;;;;;;;;;;;9.64;62.77;99440.75;4994793;28;1077;-56
2022/04/11 10:33:43;;;;;;;;;;;;;;;10.01;62.39;99451.91;4977316;28;916;-56
2022/04/11 10:48:56;;;;;;;;;;;;;;;10.90;57.97;99495.69;4896690;29;642;-56
2022/04/11 10:51:22;;;;;;;;;;;;;;;11.36;56.99;99489.59;4896496;29;880;-56
2022/04/11 10:54:07;;;;;;;;;;;;;;;11.21;52.83;99502.81;4896476;29;832;-57
2022/04/11 10:56:51;;;;;;;;;;;;;;;11.09;55.67;99499.81;4896502;29;1089;-56
2022/04/11 10:59:44;;;;;;;;;;;;;;;10.85;54.78;99527.34;4896512;29;884;-51
2022/04/11 11:02:11;;;;;;;;;;;;;;;10.92;57.98;99504.34;4896325;29;1907;-57
2022/04/11 11:07:40;;;;;;;;;;;;;;;9.54;56.82;99547.25;4896309;29;631;-57
2022/04/11 11:10:06;;;;;;;;;;;;;;;9.94;55.07;99553.31;4896287;29;1028;-57
2022/04/11 11:12:33;;;;;;;;;;;;;;;10.26;58.10;99552.31;4896359;29;836;-57
2022/04/11 11:15:19;;;;;;;;;;;;;;;10.50;57.08;99550.59;4896322;29;1051;-56
2022/04/11 11:17:59;;;;;;;;;;;;;;;10.79;54.47;99543.56;4896093;29;1091;-56
2022/04/11 11:20:31;;;;;;;;;;;;;;;11.55;56.75;99554.59;4896040;29;944;-57
2022/04/11 11:23:17;;;;;;;;;;;;;;;11.24;52.17;99573.13;4967578;28;1572;-57
2022/04/11 11:25:43;;;;;;;;;;;;;;;10.22;54.24;99577.22;4993610;28;1239;-56
2022/04/11 11:28:13;;;;;;;;;;;;;;;9.94;54.79;99567.94;4993687;28;846;-56
2022/04/11 11:30:40;;;;;;;;;;;;;;;10.47;55.59;99592.81;4993669;28;898;-56
2022/04/11 11:33:11;;;;;;;;;;;;;;;10.72;55.37;99584.34;4993606;28;868;-56
2022/04/11 11:35:51;;;;;;;;;;;;;;;10.82;54.29;99587.00;4993848;28;799;-56
2022/04/11 11:38:22;;;;;;;;;;;;;;;10.61;55.08;99579.69;4976107;28;838;-56
2022/04/11 11:40:53;;;;;;;;;;;;;;;10.09;56.67;99593.47;4975773;28;1946;-57
2022/04/11 11:43:20;;;;;;;;;;;;;;;9.84;55.60;99603.88;4993606;28;874;-56
2022/04/11 11:45:48;;;;;;;;;;;;;;;9.87;56.09;99603.06;4993606;28;811;-56
2022/04/11 11:48:24;;;;;;;;;;;;;;;9.89;56.35;99606.19;4993514;28;863;-57
2022/04/11 11:50:52;;;;;;;;;;;;;;;9.90;57.58;99608.56;4993280;28;803;-56
2022/04/11 11:53:19;;;;;;;;;;;;;;;9.82;57.99;99601.50;4992372;28;902;-56
2022/04/11 11:55:52;;;;;;;;;;;;;;;9.59;57.73;99616.56;4993036;28;933;-56
2022/04/11 11:58:19;;;;;;;;;;;;;;;9.59;58.43;99605.53;4993131;28;823;-56
2022/04/11 12:00:49;;;;;;;;;;;;;;;10.21;59.79;99608.78;4993016;28;1949;-56
2022/04/11 12:06:03;;;;;;;;;;;;;;;10.10;56.68;99624.63;4993231;28;665;-56
2022/04/11 12:08:30;;;;;;;;;;;;;;;10.03;56.25;99608.88;4992849;28;934;-56
2022/04/11 12:10:58;;;;;;;;;;;;;;;10.29;57.85;99620.56;4975506;28;902;-57
2022/04/11 12:13:26;;;;;;;;;;;;;;;10.33;56.93;99627.66;4992987;28;877;-57
2022/04/11 12:15:54;;;;;;;;;;;;;;;10.37;54.52;99619.34;4993102;28;850;-56
2022/04/11 12:18:20;;;;;;;;;;;;;;;10.18;54.54;99632.47;4993302;28;893;-56
2022/04/11 12:20:47;;;;;;;;;;;;;;;10.27;53.99;99622.94;4993001;28;1887;-55
2022/04/11 12:23:14;;;;;;;;;;;;;;;10.36;53.40;99624.09;4992978;28;961;-57
2022/04/11 12:25:42;;;;;;;;;;;;;;;10.10;52.79;99639.22;4992777;28;1188;-55
2022/04/11 12:28:27;;;;;;;;;;;;;;;10.17;53.88;99636.41;4992886;28;819;-57
2022/04/11 12:31:03;;;;;;;;;;;;;;;10.01;54.38;99625.84;4992463;28;835;-56
2022/04/11 12:33:34;;;;;;;;;;;;;;;9.67;56.41;99605.53;4992670;28;914;-56
2022/04/11 12:45:36;;;;;;;;;;;;;;;9.52;58.17;99627.66;4992712;28;672;-57
2022/04/11 12:48:22;;;;;;;;;;;;;;;9.68;56.20;99629.94;4932448;29;1058;-56
2022/04/11 12:50:48;;;;;;;;;;;;;;;9.74;55.42;99622.81;4932393;29;843;-56
2022/04/11 12:53:29;;;;;;;;;;;;;;;9.55;55.35;99626.06;4932321;29;990;-56
2022/04/11 12:56:07;;;;;;;;;;;;;;;9.47;55.73;99630.81;4932394;29;815;-56
2022/04/11 12:58:37;;;;;;;;;;;;;;;9.39;56.76;99623.75;4932470;29;1054;-56
2022/04/11 13:01:04;;;;;;;;;;;;;;;9.15;55.97;99625.38;4916293;29;1902;-56
2022/04/11 13:03:31;;;;;;;;;;;;;;;9.25;57.84;99626.53;4934746;29;843;-56
2022/04/11 13:05:58;;;;;;;;;;;;;;;9.35;57.45;99629.28;4938708;29;1083;-56
2022/04/11 13:08:25;;;;;;;;;;;;;;;9.29;57.62;99638.34;4938651;29;815;-56
2022/04/11 13:10:51;;;;;;;;;;;;;;;9.01;57.20;99628.19;4938591;29;1032;-56
2022/04/11 13:13:18;;;;;;;;;;;;;;;9.68;58.30;99632.69;4938697;29;872;-57
2022/04/11 13:18:29;;;;;;;;;;;;;;;10.68;51.59;99634.13;4939025;29;923;-57
2022/04/11 13:20:56;;;;;;;;;;;;;;;11.11;54.08;99630.19;4938415;29;1884;-57
2022/04/11 13:23:22;;;;;;;;;;;;;;;11.23;52.45;99633.22;4922463;29;1209;-57
2022/04/11 13:25:49;;;;;;;;;;;;;;;11.11;53.22;99649.53;4994227;28;1231;-56
2022/04/11 13:28:15;;;;;;;;;;;;;;;10.92;51.81;99640.63;4998547;28;890;-56
2022/04/11 13:30:42;;;;;;;;;;;;;;;10.51;54.00;99644.09;4998396;28;929;-57
2022/04/11 13:33:08;;;;;;;;;;;;;;;10.28;52.24;99646.59;4998402;28;897;-57
2022/04/11 13:35:35;;;;;;;;;;;;;;;10.14;52.41;99641.97;4998493;28;858;-57
2022/04/11 13:38:01;;;;;;;;;;;;;;;10.04;52.54;99651.09;4998354;28;898;-55
2022/04/11 13:40:28;;;;;;;;;;;;;;;10.09;52.51;99645.94;4998390;28;862;-56
2022/04/11 13:42:55;;;;;;;;;;;;;;;10.25;53.43;99652.94;4998299;28;1968;-56
2022/04/11 13:45:22;;;;;;;;;;;;;;;10.13;53.10;99646.69;4998401;28;819;-57
2022/04/11 13:47:48;;;;;;;;;;;;;;;9.87;53.67;99658.25;4998273;28;835;-56
2022/04/11 13:50:15;;;;;;;;;;;;;;;9.90;55.28;99663.78;4998383;28;826;-57
2022/04/11 13:52:42;;;;;;;;;;;;;;;9.82;54.48;99659.47;4998160;28;890;-56
2022/04/11 13:55:09;;;;;;;;;;;;;;;9.83;55.04;99666.56;4998145;28;939;-56
2022/04/11 13:57:36;;;;;;;;;;;;;;;9.79;57.31;99668.53;4998149;28;947;-56
2022/04/11 14:00:03;;;;;;;;;;;;;;;9.68;54.69;99668.56;4998538;28;819;-56
2022/04/11 14:02:30;;;;;;;;;;;;;;;9.42;55.67;99666.31;4998048;28;1882;-57
2022/04/11 14:04:57;;;;;;;;;;;;;;;9.17;55.59;99669.88;4998086;28;859;-56
2022/04/11 14:07:24;;;;;;;;;;;;;;;9.02;57.84;99677.38;4998178;28;827;-57
2022/04/11 14:09:51;;;;;;;;;;;;;;;8.80;57.21;99673.84;4998032;28;866;-56
2022/04/11 14:12:17;;;;;;;;;;;;;;;8.66;58.12;99673.84;4998437;28;815;-57
2022/04/11 14:14:44;;;;;;;;;;;;;;;8.62;57.83;99673.84;4996435;28;874;-56
2022/04/11 14:17:10;;;;;;;;;;;;;;;8.65;58.46;99664.78;4994953;28;863;-56
2022/04/11 14:19:37;;;;;;;;;;;;;;;8.58;57.76;99687.63;4995197;28;886;-56
2022/04/11 14:22:03;;;;;;;;;;;;;;;8.55;59.21;99685.63;4994759;28;1962;-56
2022/04/11 14:24:30;;;;;;;;;;;;;;;8.46;58.92;99690.75;4994993;28;1324;-56
2022/04/11 14:26:57;;;;;;;;;;;;;;;8.42;58.52;99689.16;4994899;28;862;-56
2022/04/11 14:29:23;;;;;;;;;;;;;;;8.51;58.93;99692.31;4994805;28;931;-56
2022/04/11 14:31:50;;;;;;;;;;;;;;;8.61;59.34;99685.25;4994862;28;791;-57
2022/04/11 14:34:17;;;;;;;;;;;;;;;8.66;59.07;99684.84;4994783;28;878;-56
2022/04/11 14:36:44;;;;;;;;;;;;;;;8.61;57.64;99696.28;4994596;28;831;-56
2022/04/11 14:39:11;;;;;;;;;;;;;;;8.63;57.45;99686.44;4994618;28;883;-56
2022/04/11 14:41:38;;;;;;;;;;;;;;;8.75;59.86;99693.53;4994332;28;1906;-57
2022/04/11 14:44:05;;;;;;;;;;;;;;;8.74;58.03;99687.22;4977306;28;823;-56
2022/04/11 14:46:33;;;;;;;;;;;;;;;8.81;58.53;99689.19;4994663;28;799;-57
2022/04/11 14:49:00;;;;;;;;;;;;;;;8.92;57.84;99695.50;4994342;28;989;-56
2022/04/11 14:51:27;;;;;;;;;;;;;;;9.01;58.22;99697.09;4994657;28;815;-57
2022/04/11 14:53:55;;;;;;;;;;;;;;;8.94;57.40;99704.19;4994263;28;977;-56
2022/04/11 14:56:22;;;;;;;;;;;;;;;8.87;57.35;99704.16;4994380;28;882;-57
2022/04/11 14:58:48;;;;;;;;;;;;;;;8.88;57.56;99703.00;4994222;28;859;-56
2022/04/11 15:01:15;;;;;;;;;;;;;;;9.00;58.48;99712.81;4994219;28;1891;-57
2022/04/11 15:03:42;;;;;;;;;;;;;;;9.01;57.46;99702.59;4994091;28;911;-56
2022/04/11 15:06:08;;;;;;;;;;;;;;;8.92;59.13;99722.31;4994034;28;911;-57
2022/04/11 15:08:35;;;;;;;;;;;;;;;8.92;59.58;99722.31;4994120;28;843;-57
2022/04/11 15:11:01;;;;;;;;;;;;;;;8.80;58.34;99728.97;4993997;28;945;-57
2022/04/11 15:13:28;;;;;;;;;;;;;;;8.75;58.61;99738.41;4993966;28;819;-56
2022/04/11 15:15:55;;;;;;;;;;;;;;;8.69;58.95;99734.47;4993933;28;1085;-56
2022/04/11 15:18:22;;;;;;;;;;;;;;;8.62;58.09;99728.97;4993953;28;847;-56
2022/04/11 15:20:48;;;;;;;;;;;;;;;8.62;59.37;99722.63;4993630;28;1983;-56
2022/04/11 15:23:15;;;;;;;;;;;;;;;8.53;59.95;99726.56;4993903;28;945;-57
2022/04/11 15:25:41;;;;;;;;;;;;;;;8.46;58.95;99737.56;4993479;28;1440;-57
2022/04/11 15:28:08;;;;;;;;;;;;;;;8.44;58.88;99736.38;4992644;28;799;-56
2022/04/11 15:30:35;;;;;;;;;;;;;;;8.42;58.94;99744.25;4993608;28;795;-57
2022/04/11 15:33:02;;;;;;;;;;;;;;;8.40;59.25;99739.09;4993695;28;827;-56
2022/04/11 15:35:29;;;;;;;;;;;;;;;8.42;59.16;99736.75;4993493;28;898;-56
2022/04/11 15:37:56;;;;;;;;;;;;;;;8.41;60.92;99743.47;4993590;28;827;-56
2022/04/11 15:40:21;;;;;;;;;;;;;;;8.41;61.14;99732.44;4993514;28;843;-57
2022/04/11 15:42:50;;;;;;;;;;;;;;;8.44;59.84;99737.16;4993242;28;1918;-57
2022/04/11 15:45:17;;;;;;;;;;;;;;;8.48;59.27;99737.97;4993285;28;923;-57
2022/04/11 15:47:43;;;;;;;;;;;;;;;8.54;59.46;99746.66;4993438;28;866;-56
2022/04/11 15:50:11;;;;;;;;;;;;;;;8.56;59.76;99750.56;4993156;28;886;-57
2022/04/11 15:52:38;;;;;;;;;;;;;;;8.53;59.21;99753.31;4993134;28;859;-57
2022/04/11 15:55:05;;;;;;;;;;;;;;;8.42;58.52;99755.25;4993098;28;957;-57
2022/04/11 15:57:32;;;;;;;;;;;;;;;8.25;59.16;99754.78;4993027;28;878;-56
2022/04/11 15:59:58;;;;;;;;;;;;;;;8.12;59.61;99750.78;4993142;28;862;-57
2022/04/11 16:02:25;;;;;;;;;;;;;;;8.04;59.61;99749.97;4993063;28;1954;-56
2022/04/11 16:04:53;;;;;;;;;;;;;;;8.01;59.09;99756.25;4993028;28;803;-56
2022/04/11 16:07:19;;;;;;;;;;;;;;;8.02;58.88;99759.78;4975572;28;945;-56
2022/04/11 16:09:45;;;;;;;;;;;;;;;7.98;59.49;99766.06;4993039;28;909;-56
2022/04/11 16:12:12;;;;;;;;;;;;;;;7.91;60.16;99756.97;4992938;28;791;-57
2022/04/11 16:14:39;;;;;;;;;;;;;;;7.77;60.73;99758.50;4992776;28;921;-56
2022/04/11 16:17:05;;;;;;;;;;;;;;;7.69;61.17;99756.09;4992835;28;795;-56
2022/04/11 16:19:34;;;;;;;;;;;;;;;7.63;60.29;99761.16;4992866;28;905;-56
2022/04/11 16:22:01;;;;;;;;;;;;;;;7.62;59.26;99772.53;4992560;28;1891;-56
2022/04/11 16:24:28;;;;;;;;;;;;;;;7.65;59.00;99772.56;4992373;28;1390;-56
2022/04/11 16:26:55;;;;;;;;;;;;;;;7.63;59.33;99776.88;4992705;28;834;-56
2022/04/11 16:29:22;;;;;;;;;;;;;;;7.62;59.64;99786.28;4992646;28;947;-56
2022/04/11 16:31:49;;;;;;;;;;;;;;;7.59;59.17;99792.56;4992476;28;863;-56
2022/04/11 16:34:16;;;;;;;;;;;;;;;7.60;59.80;99785.91;4992497;28;819;-56
2022/04/11 16:36:43;;;;;;;;;;;;;;;7.60;59.22;99788.66;4992582;28;819;-56
2022/04/11 16:39:10;;;;;;;;;;;;;;;7.66;59.20;99798.09;4992122;28;795;-56
2022/04/11 16:41:36;;;;;;;;;;;;;;;7.54;60.21;99793.72;4992250;28;1969;-56
2022/04/11 16:44:03;;;;;;;;;;;;;;;7.43;60.95;99790.09;4992393;28;902;-56
2022/04/11 16:46:30;;;;;;;;;;;;;;;7.30;60.54;99795.09;4992420;28;804;-57
2022/04/11 16:48:57;;;;;;;;;;;;;;;7.25;60.41;99798.19;4992517;28;870;-56
2022/04/11 16:51:24;;;;;;;;;;;;;;;7.23;59.43;99800.53;4992357;28;865;-57
2022/04/11 16:53:50;;;;;;;;;;;;;;;7.25;59.24;99812.72;4992293;28;842;-56
2022/04/11 16:56:17;;;;;;;;;;;;;;;7.27;60.19;99804.09;4992361;28;807;-56
2022/04/11 16:58:44;;;;;;;;;;;;;;;7.13;60.90;99819.31;4992164;28;847;-56
2022/04/11 17:01:11;;;;;;;;;;;;;;;6.93;62.61;99828.91;4992163;28;1886;-56
2022/04/11 17:03:38;;;;;;;;;;;;;;;6.70;63.42;99826.31;4992486;28;799;-56
2022/04/11 17:06:08;;;;;;;;;;;;;;;6.49;64.56;99826.88;4992278;28;851;-56
2022/04/11 17:08:38;;;;;;;;;;;;;;;6.45;65.48;99832.31;4992286;28;868;-56
2022/04/11 17:11:05;;;;;;;;;;;;;;;6.44;66.06;99830.72;4992120;28;875;-56
2022/04/11 17:13:31;;;;;;;;;;;;;;;6.34;65.58;99839.63;4992130;28;795;-56
2022/04/11 17:18:44;;;;;;;;;;;;;;;6.03;67.86;99843.53;4992342;28;633;-56
2022/04/11 17:21:11;;;;;;;;;;;;;;;5.85;68.04;99848.72;4991817;28;1878;-56
2022/04/11 17:23:38;;;;;;;;;;;;;;;5.72;70.05;99854.41;4992034;28;956;-56
2022/04/11 17:26:07;;;;;;;;;;;;;;;5.36;73.32;99866.75;4991611;28;1379;-56
2022/04/11 17:28:36;;;;;;;;;;;;;;;4.94;76.16;99872.25;4991892;28;1048;-56
2022/04/11 17:31:04;;;;;;;;;;;;;;;4.72;77.26;99873.81;4992236;28;865;-56
2022/04/11 17:33:31;;;;;;;;;;;;;;;4.62;78.41;99877.91;4992105;28;935;-56
2022/04/11 17:35:59;;;;;;;;;;;;;;;4.55;78.83;99875.81;4991885;28;834;-56
2022/04/11 17:38:25;;;;;;;;;;;;;;;4.44;80.09;99881.06;4991769;28;867;-56
2022/04/11 17:40:52;;;;;;;;;;;;;;;4.27;81.42;99879.53;4991825;28;1961;-56
2022/04/11 17:43:19;;;;;;;;;;;;;;;4.27;80.94;99890.47;4991820;28;858;-56
2022/04/11 17:45:46;;;;;;;;;;;;;;;4.34;80.66;99880.84;4991846;28;955;-56
2022/04/11 17:48:13;;;;;;;;;;;;;;;4.42;79.59;99893.53;4991796;28;894;-56
2022/04/11 17:50:40;;;;;;;;;;;;;;;4.53;78.13;99883.59;4993215;28;883;-56
2022/04/11 17:53:06;;;;;;;;;;;;;;;4.72;76.99;99888.28;4995472;28;931;-56
2022/04/11 17:55:33;;;;;;;;;;;;;;;4.82;75.96;99890.44;4995325;28;941;-55
2022/04/11 17:58:00;;;;;;;;;;;;;;;4.88;75.72;99897.19;4995486;28;851;-56
2022/04/11 18:00:26;;;;;;;;;;;;;;;4.88;76.42;99899.13;4995415;28;811;-56
2022/04/11 18:02:53;;;;;;;;;;;;;;;4.74;78.02;99909.81;4995085;28;1894;-56
2022/04/11 18:05:18;;;;;;;;;;;;;;;4.33;79.72;99921.06;4995455;28;878;-56
2022/04/11 18:07:45;;;;;;;;;;;;;;;3.87;81.39;99920.81;4977729;28;2531;-56
2022/04/11 18:10:11;;;;;;;;;;;;;;;3.49;83.17;99919.50;4995211;28;963;-56
2022/04/11 18:12:38;;;;;;;;;;;;;;;3.30;84.62;99924.84;4995098;28;889;-56
2022/04/11 18:15:06;;;;;;;;;;;;;;;3.20;85.28;99932.41;4995192;28;854;-56
2022/04/11 18:17:32;;;;;;;;;;;;;;;3.26;83.75;99936.50;4994930;28;787;-56
2022/04/11 18:19:59;;;;;;;;;;;;;;;3.64;81.71;99935.09;4994939;28;910;-56
2022/04/11 18:22:26;;;;;;;;;;;;;;;3.98;80.06;99934.75;4994907;28;1894;-56
2022/04/11 18:24:51;;;;;;;;;;;;;;;4.35;76.85;99935.19;4994886;28;1395;-56
2022/04/11 18:27:18;;;;;;;;;;;;;;;4.58;74.63;99934.53;4994794;28;859;-56
2022/04/11 18:32:30;;;;;;;;;;;;;;;4.81;72.96;99940.88;4994981;28;614;-56
2022/04/11 18:34:57;;;;;;;;;;;;;;;4.46;75.41;99943.66;4995038;28;831;-56
2022/04/11 18:37:24;;;;;;;;;;;;;;;3.71;78.10;99909.09;4994822;28;863;-56
2022/04/11 18:39:51;;;;;;;;;;;;;;;3.58;82.12;99955.63;4994780;28;895;-56
2022/04/11 18:42:18;;;;;;;;;;;;;;;3.51;83.64;99962.88;4994726;28;1914;-56
2022/04/11 18:44:44;;;;;;;;;;;;;;;3.50;85.21;99973.03;4994734;28;940;-56
2022/04/11 18:47:11;;;;;;;;;;;;;;;3.60;86.66;99968.97;4994750;28;863;-56
2022/04/11 18:49:38;;;;;;;;;;;;;;;3.64;86.92;99965.16;4994793;28;815;-56
2022/04/11 18:52:05;;;;;;;;;;;;;;;3.65;87.22;99966.78;4994726;28;886;-56
2022/04/11 18:54:32;;;;;;;;;;;;;;;3.58;87.53;99968.50;4994673;28;878;-56
2022/04/11 18:57:00;;;;;;;;;;;;;;;3.51;88.24;99971.84;4994406;28;962;-56
2022/04/11 18:59:26;;;;;;;;;;;;;;;3.52;89.05;99976.19;4994388;28;947;-56
2022/04/11 19:01:53;;;;;;;;;;;;;;;3.51;89.57;99976.53;4994103;28;1890;-56
2022/04/11 19:04:20;;;;;;;;;;;;;;;3.45;89.50;99978.72;4994374;28;882;-56
2022/04/11 19:06:46;;;;;;;;;;;;;;;3.35;90.25;99979.22;4994716;28;748;-56
2022/04/11 19:09:13;;;;;;;;;;;;;;;3.27;90.66;99979.03;4994243;28;894;-57
2022/04/11 19:11:39;;;;;;;;;;;;;;;3.24;90.69;99985.22;4994307;28;890;-56
2022/04/11 19:14:06;;;;;;;;;;;;;;;3.20;90.48;99983.50;4994172;28;874;-56
2022/04/11 19:16:35;;;;;;;;;;;;;;;3.24;90.02;99976.22;4993790;28;923;-56
2022/04/11 19:19:02;;;;;;;;;;;;;;;3.29;89.51;99978.69;4994310;28;1012;-56
2022/04/11 19:21:29;;;;;;;;;;;;;;;3.28;88.51;99971.63;4993926;28;1890;-56
2022/04/11 19:23:56;;;;;;;;;;;;;;;3.42;86.22;99969.28;4994286;28;925;-56
2022/04/11 19:26:24;;;;;;;;;;;;;;;3.98;81.58;99971.09;4993806;28;1294;-56
2022/04/11 19:28:51;;;;;;;;;;;;;;;4.49;76.80;99959.38;4976504;28;840;-55
2022/04/11 19:31:17;;;;;;;;;;;;;;;4.87;74.68;99960.56;4993943;28;831;-56
2022/04/11 19:33:43;;;;;;;;;;;;;;;5.02;73.60;99970.66;4993894;28;815;-56
2022/04/11 19:36:14;;;;;;;;;;;;;;;5.10;72.92;99963.38;4994438;28;994;-56
2022/04/11 19:38:41;;;;;;;;;;;;;;;5.16;72.34;99970.13;4993413;28;891;-56
2022/04/11 19:41:09;;;;;;;;;;;;;;;5.06;72.67;99971.50;4993398;28;1966;-56
2022/04/11 19:43:36;;;;;;;;;;;;;;;5.00;73.14;99967.47;4993302;28;957;-56
2022/04/11 19:46:02;;;;;;;;;;;;;;;4.80;74.06;99974.09;4993275;28;941;-56
2022/04/11 19:51:14;;;;;;;;;;;;;;;4.06;78.90;99989.25;4994156;28;625;-56
2022/04/11 19:53:41;;;;;;;;;;;;;;;3.55;80.88;99985.63;4993639;28;847;-56
2022/04/11 19:56:07;;;;;;;;;;;;;;;3.14;83.39;99993.13;4993388;28;863;-56
2022/04/11 19:58:34;;;;;;;;;;;;;;;2.88;84.32;99996.25;4976149;28;1668;-56
2022/04/11 20:01:01;;;;;;;;;;;;;;;2.67;86.01;99999.97;4993112;28;1878;-56
2022/04/11 20:03:28;;;;;;;;;;;;;;;2.49;87.45;100004.88;4993630;28;827;-56
2022/04/11 20:05:55;;;;;;;;;;;;;;;2.34;88.43;100005.56;4993059;28;863;-56
2022/04/11 20:08:22;;;;;;;;;;;;;;;2.19;89.49;100009.78;4993027;28;969;-56
2022/04/11 20:10:48;;;;;;;;;;;;;;;2.15;89.53;100014.31;4992939;28;922;-56
2022/04/11 20:13:15;;;;;;;;;;;;;;;2.15;90.20;100012.38;4992566;28;814;-56
2022/04/11 20:15:42;;;;;;;;;;;;;;;2.13;90.29;100019.31;4992748;28;787;-56
2022/04/11 20:18:09;;;;;;;;;;;;;;;1.95;90.38;100005.91;4992697;28;945;-56
2022/04/11 20:20:37;;;;;;;;;;;;;;;1.82;91.07;100013.25;4975273;28;839;-56
2022/04/11 20:23:04;;;;;;;;;;;;;;;1.66;90.87;100012.31;4992838;28;1894;-56
2022/04/11 20:25:31;;;;;;;;;;;;;;;1.65;92.14;100021.63;4992813;28;1202;-56
2022/04/11 20:27:57;;;;;;;;;;;;;;;1.73;92.34;100039.81;4992673;28;847;-56
2022/04/11 20:30:23;;;;;;;;;;;;;;;1.92;92.62;100050.19;4992662;28;815;-56
2022/04/11 20:32:49;;;;;;;;;;;;;;;2.15;91.98;100028.72;4992534;28;808;-55
2022/04/11 20:35:16;;;;;;;;;;;;;;;2.22;91.92;100031.72;4992582;28;866;-56
2022/04/11 20:37:42;;;;;;;;;;;;;;;2.30;92.19;100023.75;4992434;28;811;-56
2022/04/11 20:40:09;;;;;;;;;;;;;;;2.43;91.81;100026.16;4992414;28;1155;-56
2022/04/11 20:42:36;;;;;;;;;;;;;;;2.40;91.70;100035.00;4992389;28;1980;-56
2022/04/11 20:45:03;;;;;;;;;;;;;;;2.28;90.70;100045.13;4992367;28;874;-56
2022/04/11 20:47:30;;;;;;;;;;;;;;;2.37;92.45;100062.16;4992397;28;866;-56
2022/04/11 20:49:56;;;;;;;;;;;;;;;3.02;89.59;100065.72;4992330;28;847;-56
2022/04/11 20:52:23;;;;;;;;;;;;;;;3.18;87.62;100056.81;4992387;28;815;-56
2022/04/11 20:57:35;;;;;;;;;;;;;;;3.60;85.44;100075.56;4992327;28;649;-56
2022/04/11 21:00:03;;;;;;;;;;;;;;;3.59;86.45;100071.25;4992210;28;875;-56
2022/04/11 21:02:30;;;;;;;;;;;;;;;3.64;85.98;100081.91;4974600;28;1975;-56
2022/04/11 21:04:57;;;;;;;;;;;;;;;3.78;84.07;100087.78;4992212;28;811;-56
2022/04/11 21:07:23;;;;;;;;;;;;;;;4.16;81.96;100091.91;4992199;28;877;-56
2022/04/11 21:09:50;;;;;;;;;;;;;;;4.55;80.25;100089.34;4992190;28;823;-56
2022/04/11 21:12:16;;;;;;;;;;;;;;;4.79;78.63;100079.31;4992056;28;1031;-56
2022/04/11 21:14:42;;;;;;;;;;;;;;;5.01;77.20;100080.59;4991980;28;857;-56
2022/04/11 21:17:10;;;;;;;;;;;;;;;5.13;76.73;100072.25;4992009;28;946;-56
2022/04/11 21:19:38;;;;;;;;;;;;;;;5.26;76.23;100070.16;4992137;28;823;-56
2022/04/11 21:22:06;;;;;;;;;;;;;;;5.32;75.96;100080.47;4991959;28;1914;-56
2022/04/11 21:24:33;;;;;;;;;;;;;;;5.55;74.36;100085.25;4993697;28;1192;-56
2022/04/11 21:27:01;;;;;;;;;;;;;;;5.70;74.68;100078.09;4996158;28;819;-55
2022/04/11 21:29:31;;;;;;;;;;;;;;;5.80;74.07;100082.97;4995808;28;911;-56
2022/04/11 21:31:59;;;;;;;;;;;;;;;5.84;74.17;100089.31;4995861;28;898;-56
2022/04/11 21:34:26;;;;;;;;;;;;;;;5.82;74.40;100088.88;4996159;28;891;-56
2022/04/11 21:36:52;;;;;;;;;;;;;;;5.82;73.95;100090.84;4995891;28;819;-56
2022/04/11 21:39:19;;;;;;;;;;;;;;;5.79;74.79;100089.63;4995699;28;915;-56
2022/04/11 21:41:46;;;;;;;;;;;;;;;5.80;74.27;100096.69;4978206;28;1918;-56
2022/04/11 21:44:12;;;;;;;;;;;;;;;5.83;74.01;100093.22;4995845;28;827;-56
2022/04/11 21:46:39;;;;;;;;;;;;;;;5.70;75.22;100094.56;4995641;28;854;-56
2022/04/11 21:49:07;;;;;;;;;;;;;;;5.47;76.12;100095.28;4995555;28;923;-56
2022/04/11 21:51:33;;;;;;;;;;;;;;;5.37;76.06;100093.09;4995394;28;962;-56
2022/04/11 21:54:00;;;;;;;;;;;;;;;5.26;77.84;100098.34;4995556;28;831;-56
2022/04/11 21:56:27;;;;;;;;;;;;;;;5.18;77.13;100099.34;4995482;28;866;-56
2022/04/11 21:58:53;;;;;;;;;;;;;;;5.08;78.90;100094.44;4995432;28;819;-56
2022/04/11 22:01:20;;;;;;;;;;;;;;;4.99;78.73;100093.84;4995285;28;1953;-56
2022/04/11 22:03:46;;;;;;;;;;;;;;;4.99;79.25;100085.63;4995305;28;905;-56
2022/04/11 22:06:12;;;;;;;;;;;;;;;4.95;79.35;100093.78;4995428;28;803;-56
2022/04/11 22:08:39;;;;;;;;;;;;;;;4.90;79.73;100091.31;4995237;28;819;-56
2022/04/11 22:11:06;;;;;;;;;;;;;;;4.81;80.63;100093.44;4995101;28;881;-56
2022/04/11 22:13:32;;;;;;;;;;;;;;;4.65;81.84;100088.78;4995093;28;874;-56
2022/04/11 22:15:59;;;;;;;;;;;;;;;4.50;83.06;100081.38;4995126;28;917;-56
2022/04/11 22:18:25;;;;;;;;;;;;;;;4.37;83.92;100093.56;4994979;28;803;-56
2022/04/11 22:20:55;;;;;;;;;;;;;;;4.19;84.85;100093.91;4995064;28;804;-56
2022/04/11 22:23:22;;;;;;;;;;;;;;;4.05;85.36;100101.75;4994963;28;1878;-56
2022/04/11 22:25:49;;;;;;;;;;;;;;;3.95;85.97;100105.00;4994681;28;1485;-56
2022/04/11 22:28:15;;;;;;;;;;;;;;;3.85;86.43;100104.38;4994905;28;839;-56
2022/04/11 22:30:42;;;;;;;;;;;;;;;3.70;87.25;100101.59;4994908;28;823;-56
2022/04/11 22:33:08;;;;;;;;;;;;;;;3.55;87.71;100103.16;4977275;28;819;-56
2022/04/11 22:35:35;;;;;;;;;;;;;;;3.40;88.37;100101.94;4994113;28;938;-56
2022/04/11 22:38:02;;;;;;;;;;;;;;;3.27;89.69;100093.78;4994507;28;932;-56
2022/04/11 22:40:30;;;;;;;;;;;;;;;3.22;90.06;100093.22;4994720;28;854;-56
2022/04/11 22:42:57;;;;;;;;;;;;;;;3.21;90.69;100091.66;4994390;28;1982;-56
2022/04/11 22:45:23;;;;;;;;;;;;;;;3.19;90.07;100089.25;4994542;28;882;-56
2022/04/11 22:47:49;;;;;;;;;;;;;;;3.12;90.96;100085.53;4994549;28;807;-56
2022/04/11 22:50:16;;;;;;;;;;;;;;;3.08;90.90;100090.88;4994392;28;848;-56
2022/04/11 22:52:43;;;;;;;;;;;;;;;3.08;90.39;100095.56;4994439;28;834;-56
2022/04/11 22:55:10;;;;;;;;;;;;;;;3.22;91.13;100095.94;4994390;28;807;-56
2022/04/11 22:57:37;;;;;;;;;;;;;;;3.35;90.08;100096.72;4994453;28;799;-56
2022/04/11 23:00:05;;;;;;;;;;;;;;;3.50;89.84;100095.19;4994292;28;976;-56
2022/04/11 23:02:32;;;;;;;;;;;;;;;3.78;88.12;100092.47;4994151;28;1906;-56
2022/04/11 23:04:58;;;;;;;;;;;;;;;3.96;86.84;100085.50;4994237;28;818;-56
2022/04/11 23:07:25;;;;;;;;;;;;;;;4.13;86.57;100089.06;4994192;28;854;-56
2022/04/11 23:09:52;;;;;;;;;;;;;;;4.23;85.58;100083.06;4994125;28;818;-56
2022/04/11 23:12:19;;;;;;;;;;;;;;;4.23;86.71;100083.88;4994091;28;827;-56
2022/04/11 23:14:46;;;;;;;;;;;;;;;4.19;86.94;100085.72;4994214;28;933;-56
2022/04/11 23:17:12;;;;;;;;;;;;;;;4.16;87.39;100080.16;4993872;28;875;-56
2022/04/11 23:19:39;;;;;;;;;;;;;;;4.14;87.47;100066.84;4994193;28;900;-56
2022/04/11 23:22:06;;;;;;;;;;;;;;;4.19;87.49;100063.03;4993866;28;2013;-56
2022/04/11 23:24:33;;;;;;;;;;;;;;;4.21;87.08;100066.22;4993891;28;1413;-56
2022/04/11 23:27:00;;;;;;;;;;;;;;;4.23;86.69;100061.19;4993787;28;811;-56
2022/04/11 23:29:26;;;;;;;;;;;;;;;4.20;86.65;100054.47;4976275;28;1340;-56
2022/04/11 23:31:53;;;;;;;;;;;;;;;4.14;86.62;100055.91;4993914;28;902;-56
2022/04/11 23:34:19;;;;;;;;;;;;;;;4.05;86.71;100058.81;4993597;28;953;-56
2022/04/11 23:36:46;;;;;;;;;;;;;;;4.00;87.34;100056.31;4993709;28;877;-56
2022/04/11 23:39:12;;;;;;;;;;;;;;;3.94;87.36;100062.41;4993745;28;879;-56
2022/04/11 23:41:39;;;;;;;;;;;;;;;3.86;87.40;100051.28;4993408;28;1914;-56
2022/04/11 23:44:06;;;;;;;;;;;;;;;3.76;87.85;100053.75;4993445;28;889;-56
2022/04/11 23:46:32;;;;;;;;;;;;;;;3.58;88.11;100053.25;4993460;28;803;-56
2022/04/11 23:48:59;;;;;;;;;;;;;;;3.51;89.16;100055.78;4992503;28;822;-56
2022/04/11 23:51:26;;;;;;;;;;;;;;;3.61;88.66;100055.28;4993344;28;803;-56
2022/04/11 23:53:52;;;;;;;;;;;;;;;3.68;87.23;100052.75;4993470;28;807;-56
2022/04/11 23:56:19;;;;;;;;;;;;;;;3.73;85.09;100057.16;4993263;28;843;-56
2022/04/11 23:58:46;;;;;;;;;;;;;;;3.82;84.62;100060.50;4993228;28;898;-56
